Etusivu
METAR-TAF:

METAR-TAF

Lentoasemat :

Deauville, Ranska

Leveyspiiri: 49-21-55N, Pituuspiiri: 000-09-16E, korkeus merenpinnasta: 146 m

Tämänhetkinen sää

Tämä raportti tehtiin 11 minuuttia sitten, kello 04.00 UTC
Tuuli 5 kn etelästä
Lämpötila 6°C
Kosteus 93%
Ilmanpaine 1026 hPa
Näkyvyys: 9000 m

METAR: LFRG 190400Z AUTO 19005KT 9000 BKN007/// BKN018/// BKN033/// ///TCU 06/05 Q1026

Aika: 05:11 (04:11 UTC)

Sääennuste

Tämä raportti tehtiin 10 tuntia ja 29 minuuttia sitten, kello 17.42 UTC
Ennuste voimassa 18. päivästä klo 17 UTC - 18. päivään klo 24 UTC
Tuuli 10 kn luoteesta
Näkyvyys 10 km tai enemmän
Hajonneita pilviä 2500 ft:n korkeudessa
Todennäköisyys 40% :
Ajoittain
18. päivästä klo 17 UTC - 18. päivään klo 19 UTC
Näkyvyys: 4000 m
Hajonneita pilviä 1500 ft:n korkeudessa
vesikuuroja

TAF: LFRG 181742Z 1817/1824 31010KT 9999 BKN025 PROB40 TEMPO 1817/1819 4000 SHRA BKN015

Säähavainnot ja -ennusteet yli 4000 lentoasemalta (METAR- ja TAF-raportit).

Käytössä olevat sääasemat on merkitty karttaan keltaisilla ja punaisilla pisteillä.

Aseta hiiri pisteen päälle nähdäksesi sääaseman nimen.

Klikkaa sitten nähdäksesi säähavainnot ja -ennusteet.

Kartan vaihtaminen: klikkaa mustalla rastilla varustettuja vihreitä pisteitä, niin voit zoomata sisään; viivalla varustettua vihreää pistettä, niin voit zoomata ulos tai vihreitä nuolia, niin pääset viereisille kartoille.


METAR-TAF: